Terminal Aerodrome Forecast
Issued by NWS

Home | Current Version | Previous Version | Text Only | Print | Product List | Glossary Off
Versions: 1 2 3 4 5 6 7 8 9 10 11 12 13 14 15 16 17 18 19 20 21 22 23

516
FTUS43 KABR 182337
TAFPIR
TAF
KPIR 182337Z 1900/1924 12008KT P6SM BKN250
     FM190600 13009KT P6SM BKN250 WS020/19035KT
     FM191200 14014G23KT P6SM BKN200 WS020/19045KT
     FM191500 16019G28KT P6SM SCT150
     FM192200 21015G23KT P6SM SCT050 BKN200
      TEMPO 1922/1924 TSRA BKN050CB=

USA.gov is the U.S. government's official web portal to all federal, state and local government web resources and services.